Historyczne dane pomiarowe

Dodano dane terminowe – wersja testowa.

Dane z okresu 1951-2019

Wersja bazy: 1.34 [2019-03-16, lista zmian], aktualizacja planowana na 2019-04-15

Dane meteo z obszaru Polski uzyskane na podstawie danych udostępnionych przez Instytut Meteorologii i Gospodarki Wodnej – Państwowy Instytut Badawczy.

 

Wybierz Datę:    

       

TemperaturaWilgotnośćWiatrCiśnienieOpadyŚniegCzas trwania zjawisk
 Stacja t tx tn tng RH VA  wxwx mslp ppp RRR   cm mm wxwxwxwxwxwxwx
1994-10-10 6.3 11.1 2.5--- 5.0 5.0---- 0.0------------
1994-10-09 6.0 10.0 1.8--- 8.0 3.3---- 35.0------------
1994-10-08 8.1 13.7 3.1--- 5.0 2.0---- 10.2------------
1994-10-07 2.9 7.5 -3.8--- 6.3 2.7---- 0.0------------
1994-10-06 2.9 7.9 -0.7--- 5.0 3.0---- 0.0------------
1994-10-05 3.3 10.0 -0.8--- 3.0 3.0---- 0.0------------
1994-10-04 7.6 15.7 2.0--- 6.0 3.0---- 2.1------------
1994-10-03 13.4 18.6 7.2--- 7.7 4.0---- 4.5------------
1994-10-02 7.8 14.5 1.5--- 6.0 1.7---- 0.0------------
1994-10-01 14.6 19.6 7.7--- 6.0 4.0---- 0.0------------
1994-09-30 13.5 16.6 11.9--- 7.3 2.3---- 0.0------------
1994-09-29 12.5 18.5 5.6--- 3.3 4.0---- 0.0------------
1994-09-28 12.0 15.7 9.7--- 3.3 3.0---- 0.0------------
1994-09-27 14.1 16.6 11.9--- 6.7 2.0---- 8.5------------
1994-09-26 17.2 22.3 14.2--- 6.7 2.0---- 0.0------------
1994-09-25 15.1 23.5 7.2--- 2.0 2.0---- 0.0------------
1994-09-24 12.8 19.3 7.9--- 1.0 2.0---- 0.0------------
1994-09-23 13.1 14.9 11.8--- 7.0 3.3---- 0.0------------
1994-09-22 13.4 15.5 11.6--- 7.0 4.0---- 0.5------------
1994-09-21 12.5 13.4 11.0--- 7.7 3.0---- 4.0------------
1994-09-20 10.9 14.1 9.7--- 8.0 2.0---- 9.0------------
1994-09-19 13.1 17.9 6.6--- 7.0 1.3---- 3.5------------
1994-09-18 12.1 16.5 8.9--- 4.7 2.3---- 0.0------------
1994-09-17 13.4 17.3 7.6--- 5.3 2.0---- 12.4------------
1994-09-16 16.0 20.0 13.4--- 4.0 2.7---- 0.0------------
1994-09-15 20.4 24.5 18.2--- 5.0 5.0---- 0.0------------
1994-09-14 21.0 25.5 15.1--- 5.0 3.0---- 0.0------------
1994-09-13 20.3 26.2 13.3--- 4.3 2.0---- 5.1------------
1994-09-12 17.9 20.2 7.0--- 4.3 1.3---- 0.0------------
1994-09-11 15.0 20.1 11.6--- 4.0 3.3---- 0.0------------
1994-09-10 15.0 21.0 8.9--- 6.3 2.0---- 0.0------------
1994-09-09 18.5 23.8 14.2--- 4.7 3.3---- 10.8------------
1994-09-08 21.0 26.5 11.1--- 4.0 3.0---- 0.0------------
1994-09-07 17.3 21.5 6.6--- 5.0 3.3---- 0.5------------
1994-09-06 15.9 19.0 13.1--- 4.0 3.0---- 0.0------------
1994-09-05 18.0 23.0 13.0--- 5.0 2.3---- 1.1------------
1994-09-04 17.5 20.8 15.7--- 6.0 2.7---- 0.0------------
1994-09-03 21.3 26.8 17.3--- 5.0 1.3---- 0.0------------
1994-09-02 19.1 24.7 16.8--- 7.3 1.3---- 0.0------------
1994-09-01 16.5 22.6 11.5--- 4.0 3.0---- 36.4------------
1994-08-31 16.5 24.0 10.2--- 3.0 2.3---- 0.0------------
1994-08-30 15.1 21.0 9.9--- 5.3 4.0---- 0.0------------
1994-08-29 16.1 21.5 11.7--- 4.3 2.0---- 0.0------------
1994-08-28 16.5 22.0 8.7--- 4.0 4.0---- 2.5------------
1994-08-27 16.6 20.0 9.8--- 4.0 3.0---- 0.0------------
1994-08-26 16.5 20.8 14.1--- 6.0 5.0---- 0.0------------
1994-08-25 17.8 25.0 11.1--- 5.0 5.0---- 0.0------------
1994-08-24 16.7 24.0 8.9--- 4.0 2.3---- 0.0------------
1994-08-23 14.9 22.5 7.1--- 4.0 2.3---- 0.0------------
1994-08-22 15.8 22.0 10.8--- 4.3 1.7---- 0.0------------
1994-08-21 16.4 21.0 12.2--- 4.0 3.3---- 0.0------------
1994-08-20 13.2 16.4 11.1--- 7.3 2.3---- 10.9------------
1994-08-19 13.2 16.5 10.8--- 6.0 4.3---- 3.5------------
1994-08-18 14.6 18.6 12.2--- 7.0 2.3---- 11.7------------
1994-08-17 16.1 23.0 8.8--- 2.0 2.3---- 5.7------------
1994-08-16 15.9 19.9 12.5--- 5.3 3.3---- 0.8------------
1994-08-15 13.0 16.6 10.4--- 6.0 5.0---- 0.1------------
1994-08-14 14.7 18.8 11.8--- 4.0 5.0---- 0.0------------
1994-08-13 17.1 22.0 14.7--- 6.7 4.0---- 3.3------------
1994-08-12 17.2 19.6 16.2--- 7.0 2.0---- 0.9------------
804.1 ms

 

Źródłem pochodzenia danych jest Instytut Meteorologii i Gospodarki Wodnej – Państwowy Instytut Badawczy. Dane Instytutu Meteorologii i Gospodarki Wodnej – Państwowego Instytutu Badawczego zostały przetworzone.

Dane źródłowe można odnaleźć na stronie https://dane.imgw.pl